sensor_id;sensor_type;location;lat;lon;timestamp;temperature;humidity
67275;DHT22;55463;52.324;5.122;2023-01-06T00:01:05;11.10;95.60
67275;DHT22;55463;52.324;5.122;2023-01-06T00:03:31;11.10;95.37
67275;DHT22;55463;52.324;5.122;2023-01-06T00:06:00;11.10;95.14
67275;DHT22;55463;52.324;5.122;2023-01-06T00:08:26;11.10;94.86
67275;DHT22;55463;52.324;5.122;2023-01-06T00:10:53;11.08;94.67
67275;DHT22;55463;52.324;5.122;2023-01-06T00:13:18;11.08;94.61
67275;DHT22;55463;52.324;5.122;2023-01-06T00:15:43;11.06;94.35
67275;DHT22;55463;52.324;5.122;2023-01-06T00:18:09;11.06;94.01
67275;DHT22;55463;52.324;5.122;2023-01-06T00:20:34;11.04;93.94
67275;DHT22;55463;52.324;5.122;2023-01-06T00:23:00;11.03;93.82
67275;DHT22;55463;52.324;5.122;2023-01-06T00:25:25;11.03;93.81
67275;DHT22;55463;52.324;5.122;2023-01-06T00:27:50;11.04;93.61
67275;DHT22;55463;52.324;5.122;2023-01-06T00:30:16;11.06;93.63
67275;DHT22;55463;52.324;5.122;2023-01-06T00:32:41;11.10;93.59
67275;DHT22;55463;52.324;5.122;2023-01-06T00:35:07;11.11;93.51
67275;DHT22;55463;52.324;5.122;2023-01-06T00:37:32;11.11;93.36
67275;DHT22;55463;52.324;5.122;2023-01-06T00:39:58;11.11;93.49
67275;DHT22;55463;52.324;5.122;2023-01-06T00:42:23;11.11;93.55
67275;DHT22;55463;52.324;5.122;2023-01-06T00:44:49;11.11;93.44
67275;DHT22;55463;52.324;5.122;2023-01-06T00:47:15;11.11;93.50
67275;DHT22;55463;52.324;5.122;2023-01-06T00:49:40;11.10;93.37
67275;DHT22;55463;52.324;5.122;2023-01-06T00:52:06;11.10;93.28
67275;DHT22;55463;52.324;5.122;2023-01-06T00:54:31;11.08;93.25
67275;DHT22;55463;52.324;5.122;2023-01-06T00:56:57;11.08;93.34
67275;DHT22;55463;52.324;5.122;2023-01-06T00:59:24;11.10;93.41
67275;DHT22;55463;52.324;5.122;2023-01-06T01:01:52;11.11;93.35
67275;DHT22;55463;52.324;5.122;2023-01-06T01:04:18;11.06;93.37
67275;DHT22;55463;52.324;5.122;2023-01-06T01:06:45;11.08;93.43
67275;DHT22;55463;52.324;5.122;2023-01-06T01:09:17;11.07;93.52
67275;DHT22;55463;52.324;5.122;2023-01-06T01:11:42;11.06;93.52
67275;DHT22;55463;52.324;5.122;2023-01-06T01:14:26;11.04;93.58
67275;DHT22;55463;52.324;5.122;2023-01-06T01:16:52;11.06;93.58
67275;DHT22;55463;52.324;5.122;2023-01-06T01:19:18;11.03;93.67
67275;DHT22;55463;52.324;5.122;2023-01-06T01:21:44;11.00;93.75
67275;DHT22;55463;52.324;5.122;2023-01-06T01:24:09;11.00;93.77
67275;DHT22;55463;52.324;5.122;2023-01-06T01:26:35;10.99;93.85
67275;DHT22;55463;52.324;5.122;2023-01-06T01:29:00;10.99;93.91
67275;DHT22;55463;52.324;5.122;2023-01-06T01:31:26;10.99;93.98
67275;DHT22;55463;52.324;5.122;2023-01-06T01:33:51;10.97;93.96
67275;DHT22;55463;52.324;5.122;2023-01-06T01:36:17;10.97;93.97
67275;DHT22;55463;52.324;5.122;2023-01-06T01:38:43;10.97;94.07
67275;DHT22;55463;52.324;5.122;2023-01-06T01:41:20;10.97;94.06
67275;DHT22;55463;52.324;5.122;2023-01-06T01:46:13;10.94;94.03
67275;DHT22;55463;52.324;5.122;2023-01-06T01:48:39;10.96;94.08
67275;DHT22;55463;52.324;5.122;2023-01-06T01:51:06;10.96;94.10
67275;DHT22;55463;52.324;5.122;2023-01-06T01:53:46;10.91;94.13
67275;DHT22;55463;52.324;5.122;2023-01-06T01:56:18;10.93;94.16
67275;DHT22;55463;52.324;5.122;2023-01-06T01:58:54;10.91;94.18
67275;DHT22;55463;52.324;5.122;2023-01-06T02:01:20;10.91;94.07
67275;DHT22;55463;52.324;5.122;2023-01-06T02:03:45;10.91;93.92
67275;DHT22;55463;52.324;5.122;2023-01-06T02:06:22;10.90;94.04
67275;DHT22;55463;52.324;5.122;2023-01-06T02:08:58;10.91;94.14
67275;DHT22;55463;52.324;5.122;2023-01-06T02:11:26;10.91;93.86
67275;DHT22;55463;52.324;5.122;2023-01-06T02:14:09;10.93;93.76
67275;DHT22;55463;52.324;5.122;2023-01-06T02:20:09;10.90;93.51
67275;DHT22;55463;52.324;5.122;2023-01-06T02:26:16;10.91;93.45
67275;DHT22;55463;52.324;5.122;2023-01-06T02:29:02;10.90;92.91
67275;DHT22;55463;52.324;5.122;2023-01-06T02:34:36;10.93;92.92
67275;DHT22;55463;52.324;5.122;2023-01-06T02:42:36;10.97;92.75
67275;DHT22;55463;52.324;5.122;2023-01-06T02:45:31;10.99;92.57
67275;DHT22;55463;52.324;5.122;2023-01-06T02:53:40;11.01;92.29
67275;DHT22;55463;52.324;5.122;2023-01-06T02:56:07;10.97;92.48
67275;DHT22;55463;52.324;5.122;2023-01-06T03:01:11;10.96;92.20
67275;DHT22;55463;52.324;5.122;2023-01-06T03:03:40;10.97;92.27
67275;DHT22;55463;52.324;5.122;2023-01-06T03:06:10;10.94;92.20
67275;DHT22;55463;52.324;5.122;2023-01-06T03:08:37;10.94;92.15
67275;DHT22;55463;52.324;5.122;2023-01-06T03:11:03;10.94;92.04
67275;DHT22;55463;52.324;5.122;2023-01-06T03:13:45;10.91;92.12
67275;DHT22;55463;52.324;5.122;2023-01-06T03:16:13;10.93;92.05
67275;DHT22;55463;52.324;5.122;2023-01-06T03:18:41;10.94;92.08
67275;DHT22;55463;52.324;5.122;2023-01-06T03:21:10;10.93;91.89
67275;DHT22;55463;52.324;5.122;2023-01-06T03:23:39;10.93;91.81
67275;DHT22;55463;52.324;5.122;2023-01-06T03:26:04;10.94;91.67
67275;DHT22;55463;52.324;5.122;2023-01-06T03:28:30;10.96;91.55
67275;DHT22;55463;52.324;5.122;2023-01-06T03:31:06;10.91;91.48
67275;DHT22;55463;52.324;5.122;2023-01-06T03:39:38;10.96;91.18
67275;DHT22;55463;52.324;5.122;2023-01-06T03:45:10;10.96;91.14
67275;DHT22;55463;52.324;5.122;2023-01-06T03:54:00;10.99;90.71
67275;DHT22;55463;52.324;5.122;2023-01-06T03:56:32;10.97;90.68
67275;DHT22;55463;52.324;5.122;2023-01-06T03:59:04;11.00;90.60
67275;DHT22;55463;52.324;5.122;2023-01-06T04:01:31;10.99;90.48
67275;DHT22;55463;52.324;5.122;2023-01-06T04:04:00;11.00;90.26
67275;DHT22;55463;52.324;5.122;2023-01-06T04:06:25;11.00;90.43
67275;DHT22;55463;52.324;5.122;2023-01-06T04:08:50;11.01;90.40
67275;DHT22;55463;52.324;5.122;2023-01-06T04:11:16;11.01;90.45
67275;DHT22;55463;52.324;5.122;2023-01-06T04:14:00;11.01;90.27
67275;DHT22;55463;52.324;5.122;2023-01-06T04:16:25;11.03;90.12
67275;DHT22;55463;52.324;5.122;2023-01-06T04:18:51;11.07;90.06
67275;DHT22;55463;52.324;5.122;2023-01-06T04:21:16;11.07;90.37
67275;DHT22;55463;52.324;5.122;2023-01-06T04:23:41;11.03;90.26
67275;DHT22;55463;52.324;5.122;2023-01-06T04:26:07;11.04;90.48
67275;DHT22;55463;52.324;5.122;2023-01-06T04:28:32;11.06;90.35
67275;DHT22;55463;52.324;5.122;2023-01-06T04:30:59;11.04;90.62
67275;DHT22;55463;52.324;5.122;2023-01-06T04:33:24;11.06;90.64
67275;DHT22;55463;52.324;5.122;2023-01-06T04:35:50;11.03;90.83
67275;DHT22;55463;52.324;5.122;2023-01-06T04:38:16;11.03;90.93
67275;DHT22;55463;52.324;5.122;2023-01-06T04:40:42;11.03;90.98
67275;DHT22;55463;52.324;5.122;2023-01-06T04:43:07;11.01;90.97
67275;DHT22;55463;52.324;5.122;2023-01-06T04:45:38;11.01;90.88
67275;DHT22;55463;52.324;5.122;2023-01-06T04:48:04;11.00;90.79
67275;DHT22;55463;52.324;5.122;2023-01-06T04:50:30;11.01;90.73
67275;DHT22;55463;52.324;5.122;2023-01-06T04:52:55;11.04;90.57
67275;DHT22;55463;52.324;5.122;2023-01-06T04:55:21;11.10;90.56
67275;DHT22;55463;52.324;5.122;2023-01-06T04:57:46;11.10;90.58
67275;DHT22;55463;52.324;5.122;2023-01-06T05:00:12;11.11;90.51
67275;DHT22;55463;52.324;5.122;2023-01-06T05:02:37;11.08;90.56
67275;DHT22;55463;52.324;5.122;2023-01-06T05:05:03;11.10;90.52
67275;DHT22;55463;52.324;5.122;2023-01-06T05:07:28;11.12;90.43
67275;DHT22;55463;52.324;5.122;2023-01-06T05:09:54;11.14;90.83
67275;DHT22;55463;52.324;5.122;2023-01-06T05:12:19;11.12;91.02
67275;DHT22;55463;52.324;5.122;2023-01-06T05:14:44;11.07;91.55
67275;DHT22;55463;52.324;5.122;2023-01-06T05:17:10;11.04;91.99
67275;DHT22;55463;52.324;5.122;2023-01-06T05:19:35;10.97;92.73
67275;DHT22;55463;52.324;5.122;2023-01-06T05:22:01;10.91;93.37
67275;DHT22;55463;52.324;5.122;2023-01-06T05:24:26;10.80;93.69
67275;DHT22;55463;52.324;5.122;2023-01-06T05:26:51;10.74;94.01
67275;DHT22;55463;52.324;5.122;2023-01-06T05:29:19;10.67;94.39
67275;DHT22;55463;52.324;5.122;2023-01-06T05:31:44;10.62;94.62
67275;DHT22;55463;52.324;5.122;2023-01-06T05:34:10;10.59;94.81
67275;DHT22;55463;52.324;5.122;2023-01-06T05:36:36;10.53;95.20
67275;DHT22;55463;52.324;5.122;2023-01-06T05:39:01;10.52;95.37
67275;DHT22;55463;52.324;5.122;2023-01-06T05:41:26;10.49;95.59
67275;DHT22;55463;52.324;5.122;2023-01-06T05:43:52;10.48;95.91
67275;DHT22;55463;52.324;5.122;2023-01-06T05:46:17;10.48;96.00
67275;DHT22;55463;52.324;5.122;2023-01-06T05:48:43;10.46;96.15
67275;DHT22;55463;52.324;5.122;2023-01-06T05:51:11;10.44;96.48
67275;DHT22;55463;52.324;5.122;2023-01-06T05:53:39;10.41;96.55
67275;DHT22;55463;52.324;5.122;2023-01-06T05:56:08;10.38;96.68
67275;DHT22;55463;52.324;5.122;2023-01-06T05:58:34;10.39;96.96
67275;DHT22;55463;52.324;5.122;2023-01-06T06:01:01;10.38;97.13
67275;DHT22;55463;52.324;5.122;2023-01-06T06:03:27;10.34;97.28
67275;DHT22;55463;52.324;5.122;2023-01-06T06:05:52;10.34;97.43
67275;DHT22;55463;52.324;5.122;2023-01-06T06:08:18;10.32;97.53
67275;DHT22;55463;52.324;5.122;2023-01-06T06:10:43;10.31;97.63
67275;DHT22;55463;52.324;5.122;2023-01-06T06:13:12;10.29;97.78
67275;DHT22;55463;52.324;5.122;2023-01-06T06:15:37;10.29;97.86
67275;DHT22;55463;52.324;5.122;2023-01-06T06:18:03;10.28;97.96
67275;DHT22;55463;52.324;5.122;2023-01-06T06:20:29;10.25;98.03
67275;DHT22;55463;52.324;5.122;2023-01-06T06:22:54;10.24;98.15
67275;DHT22;55463;52.324;5.122;2023-01-06T06:25:20;10.24;98.29
67275;DHT22;55463;52.324;5.122;2023-01-06T06:27:45;10.25;98.43
67275;DHT22;55463;52.324;5.122;2023-01-06T06:30:10;10.22;98.52
67275;DHT22;55463;52.324;5.122;2023-01-06T06:32:36;10.21;98.52
67275;DHT22;55463;52.324;5.122;2023-01-06T06:35:01;10.21;98.66
67275;DHT22;55463;52.324;5.122;2023-01-06T06:37:27;10.21;98.59
67275;DHT22;55463;52.324;5.122;2023-01-06T06:39:52;10.21;98.73
67275;DHT22;55463;52.324;5.122;2023-01-06T06:42:17;10.21;98.95
67275;DHT22;55463;52.324;5.122;2023-01-06T06:44:43;10.19;98.92
67275;DHT22;55463;52.324;5.122;2023-01-06T06:47:08;10.19;98.89
67275;DHT22;55463;52.324;5.122;2023-01-06T06:49:33;10.24;98.88
67275;DHT22;55463;52.324;5.122;2023-01-06T06:51:59;10.27;98.74
67275;DHT22;55463;52.324;5.122;2023-01-06T06:54:24;10.28;98.67
67275;DHT22;55463;52.324;5.122;2023-01-06T06:56:49;10.28;98.67
67275;DHT22;55463;52.324;5.122;2023-01-06T06:59:15;10.31;98.66
67275;DHT22;55463;52.324;5.122;2023-01-06T07:01:40;10.31;98.66
67275;DHT22;55463;52.324;5.122;2023-01-06T07:04:06;10.34;98.62
67275;DHT22;55463;52.324;5.122;2023-01-06T07:06:33;10.35;98.59
67275;DHT22;55463;52.324;5.122;2023-01-06T07:08:59;10.36;98.66
67275;DHT22;55463;52.324;5.122;2023-01-06T07:11:25;10.39;98.35
67275;DHT22;55463;52.324;5.122;2023-01-06T07:13:50;10.42;98.33
67275;DHT22;55463;52.324;5.122;2023-01-06T07:16:15;10.44;98.13
67275;DHT22;55463;52.324;5.122;2023-01-06T07:18:41;10.46;97.95
67275;DHT22;55463;52.324;5.122;2023-01-06T07:21:06;10.48;97.68
67275;DHT22;55463;52.324;5.122;2023-01-06T07:23:32;10.50;97.16
67275;DHT22;55463;52.324;5.122;2023-01-06T07:26:00;10.48;97.05
67275;DHT22;55463;52.324;5.122;2023-01-06T07:28:26;10.45;96.86
67275;DHT22;55463;52.324;5.122;2023-01-06T07:30:52;10.46;96.72
67275;DHT22;55463;52.324;5.122;2023-01-06T07:33:19;10.45;96.69
67275;DHT22;55463;52.324;5.122;2023-01-06T07:35:44;10.45;96.53
67275;DHT22;55463;52.324;5.122;2023-01-06T07:38:10;10.44;96.56
67275;DHT22;55463;52.324;5.122;2023-01-06T07:40:36;10.38;96.31
67275;DHT22;55463;52.324;5.122;2023-01-06T07:43:06;10.39;96.38
67275;DHT22;55463;52.324;5.122;2023-01-06T07:45:32;10.36;96.26
67275;DHT22;55463;52.324;5.122;2023-01-06T07:47:58;10.36;96.13
67275;DHT22;55463;52.324;5.122;2023-01-06T07:50:24;10.36;95.91
67275;DHT22;55463;52.324;5.122;2023-01-06T07:52:49;10.34;95.66
67275;DHT22;55463;52.324;5.122;2023-01-06T07:55:15;10.31;95.55
67275;DHT22;55463;52.324;5.122;2023-01-06T07:57:41;10.29;95.49
67275;DHT22;55463;52.324;5.122;2023-01-06T08:00:06;10.27;95.40
67275;DHT22;55463;52.324;5.122;2023-01-06T08:02:32;10.25;95.38
67275;DHT22;55463;52.324;5.122;2023-01-06T08:04:57;10.19;95.21
67275;DHT22;55463;52.324;5.122;2023-01-06T08:07:23;10.15;94.86
67275;DHT22;55463;52.324;5.122;2023-01-06T08:09:48;10.08;94.46
67275;DHT22;55463;52.324;5.122;2023-01-06T08:12:14;10.02;94.42
67275;DHT22;55463;52.324;5.122;2023-01-06T08:14:39;9.95;94.48
67275;DHT22;55463;52.324;5.122;2023-01-06T08:17:04;9.89;94.43
67275;DHT22;55463;52.324;5.122;2023-01-06T08:19:31;9.86;94.22
67275;DHT22;55463;52.324;5.122;2023-01-06T08:21:56;9.80;94.27
67275;DHT22;55463;52.324;5.122;2023-01-06T08:24:22;9.77;94.09
67275;DHT22;55463;52.324;5.122;2023-01-06T08:26:47;9.80;93.91
67275;DHT22;55463;52.324;5.122;2023-01-06T08:29:12;9.84;94.08
67275;DHT22;55463;52.324;5.122;2023-01-06T08:31:38;9.90;94.34
67275;DHT22;55463;52.324;5.122;2023-01-06T08:34:03;10.05;93.71
67275;DHT22;55463;52.324;5.122;2023-01-06T08:36:29;10.18;93.19
67275;DHT22;55463;52.324;5.122;2023-01-06T08:38:55;10.35;93.28
67275;DHT22;55463;52.324;5.122;2023-01-06T08:41:20;10.48;92.60
67275;DHT22;55463;52.324;5.122;2023-01-06T08:43:46;10.62;93.00
67275;DHT22;55463;52.324;5.122;2023-01-06T08:46:14;10.77;92.47
67275;DHT22;55463;52.324;5.122;2023-01-06T08:48:40;10.91;91.63
67275;DHT22;55463;52.324;5.122;2023-01-06T08:51:09;11.03;91.26
67275;DHT22;55463;52.324;5.122;2023-01-06T08:53:35;11.15;91.30
67275;DHT22;55463;52.324;5.122;2023-01-06T08:56:00;11.24;91.06
67275;DHT22;55463;52.324;5.122;2023-01-06T08:58:26;11.31;89.91
67275;DHT22;55463;52.324;5.122;2023-01-06T09:00:51;11.39;89.98
67275;DHT22;55463;52.324;5.122;2023-01-06T09:03:17;11.47;90.10
67275;DHT22;55463;52.324;5.122;2023-01-06T09:05:42;11.58;89.80
67275;DHT22;55463;52.324;5.122;2023-01-06T09:08:08;11.63;89.39
67275;DHT22;55463;52.324;5.122;2023-01-06T09:10:36;11.73;88.57
67275;DHT22;55463;52.324;5.122;2023-01-06T09:13:02;11.77;88.29
67275;DHT22;55463;52.324;5.122;2023-01-06T09:15:28;11.87;88.30
67275;DHT22;55463;52.324;5.122;2023-01-06T09:17:54;11.98;88.14
67275;DHT22;55463;52.324;5.122;2023-01-06T09:20:19;12.04;87.34
67275;DHT22;55463;52.324;5.122;2023-01-06T09:22:44;12.14;88.12
67275;DHT22;55463;52.324;5.122;2023-01-06T09:25:10;12.28;87.63
67275;DHT22;55463;52.324;5.122;2023-01-06T09:27:35;12.41;86.90
67275;DHT22;55463;52.324;5.122;2023-01-06T09:30:01;12.50;86.56
67275;DHT22;55463;52.324;5.122;2023-01-06T09:32:27;12.60;86.52
67275;DHT22;55463;52.324;5.122;2023-01-06T09:34:52;12.72;85.45
67275;DHT22;55463;52.324;5.122;2023-01-06T09:37:17;12.79;85.30
67275;DHT22;55463;52.324;5.122;2023-01-06T09:39:43;12.86;85.98
67275;DHT22;55463;52.324;5.122;2023-01-06T09:45:42;13.08;84.22
67275;DHT22;55463;52.324;5.122;2023-01-06T09:48:15;13.19;83.46
67275;DHT22;55463;52.324;5.122;2023-01-06T09:50:44;13.22;82.49
67275;DHT22;55463;52.324;5.122;2023-01-06T09:53:18;13.18;82.69
67275;DHT22;55463;52.324;5.122;2023-01-06T09:55:46;13.25;83.16
67275;DHT22;55463;52.324;5.122;2023-01-06T09:58:15;13.28;82.39
67275;DHT22;55463;52.324;5.122;2023-01-06T10:00:50;13.32;81.65
67275;DHT22;55463;52.324;5.122;2023-01-06T10:03:22;13.35;81.65
67275;DHT22;55463;52.324;5.122;2023-01-06T10:16:56;13.81;80.47
67275;DHT22;55463;52.324;5.122;2023-01-06T10:19:43;13.87;80.33
67275;DHT22;55463;52.324;5.122;2023-01-06T10:25:15;13.88;78.68
67275;DHT22;55463;52.324;5.122;2023-01-06T10:27:48;13.88;79.80
67275;DHT22;55463;52.324;5.122;2023-01-06T10:30:40;13.93;78.47
67275;DHT22;55463;52.324;5.122;2023-01-06T10:35:44;13.94;77.14
67275;DHT22;55463;52.324;5.122;2023-01-06T10:38:11;13.98;77.35
67275;DHT22;55463;52.324;5.122;2023-01-06T10:40:36;13.94;76.83
67275;DHT22;55463;52.324;5.122;2023-01-06T10:43:08;13.93;77.19
67275;DHT22;55463;52.324;5.122;2023-01-06T10:45:42;13.91;78.12
67275;DHT22;55463;52.324;5.122;2023-01-06T10:48:14;13.96;77.18
67275;DHT22;55463;52.324;5.122;2023-01-06T10:50:40;13.91;77.02
67275;DHT22;55463;52.324;5.122;2023-01-06T10:53:06;13.80;76.44
67275;DHT22;55463;52.324;5.122;2023-01-06T10:55:52;13.67;76.66
67275;DHT22;55463;52.324;5.122;2023-01-06T10:58:36;13.62;77.14
67275;DHT22;55463;52.324;5.122;2023-01-06T11:01:15;13.59;77.50
67275;DHT22;55463;52.324;5.122;2023-01-06T11:03:41;13.55;77.16
67275;DHT22;55463;52.324;5.122;2023-01-06T11:06:27;13.38;76.96
67275;DHT22;55463;52.324;5.122;2023-01-06T11:08:53;13.24;77.39
67275;DHT22;55463;52.324;5.122;2023-01-06T11:11:19;13.11;77.86
67275;DHT22;55463;52.324;5.122;2023-01-06T11:13:47;13.05;77.28
67275;DHT22;55463;52.324;5.122;2023-01-06T11:16:28;12.96;77.61
67275;DHT22;55463;52.324;5.122;2023-01-06T11:19:00;12.79;77.70
67275;DHT22;55463;52.324;5.122;2023-01-06T11:21:40;12.67;78.59
67275;DHT22;55463;52.324;5.122;2023-01-06T11:24:19;12.55;78.73
67275;DHT22;55463;52.324;5.122;2023-01-06T11:27:01;12.46;79.43
67275;DHT22;55463;52.324;5.122;2023-01-06T11:29:37;12.38;79.44
67275;DHT22;55463;52.324;5.122;2023-01-06T11:32:32;12.28;80.12
67275;DHT22;55463;52.324;5.122;2023-01-06T11:35:01;12.24;79.74
67275;DHT22;55463;52.324;5.122;2023-01-06T11:39:55;12.21;80.57
67275;DHT22;55463;52.324;5.122;2023-01-06T11:42:21;12.21;80.44
67275;DHT22;55463;52.324;5.122;2023-01-06T11:44:47;12.21;80.88
67275;DHT22;55463;52.324;5.122;2023-01-06T11:47:23;12.17;80.86
67275;DHT22;55463;52.324;5.122;2023-01-06T11:49:53;12.13;80.46
67275;DHT22;55463;52.324;5.122;2023-01-06T11:52:30;12.02;80.68
67275;DHT22;55463;52.324;5.122;2023-01-06T11:55:00;12.00;81.00
67275;DHT22;55463;52.324;5.122;2023-01-06T11:57:32;11.90;81.24
67275;DHT22;55463;52.324;5.122;2023-01-06T12:08:23;11.70;81.33
67275;DHT22;55463;52.324;5.122;2023-01-06T12:10:59;11.66;81.55
67275;DHT22;55463;52.324;5.122;2023-01-06T12:13:25;11.66;81.10
67275;DHT22;55463;52.324;5.122;2023-01-06T12:16:00;11.61;81.87
67275;DHT22;55463;52.324;5.122;2023-01-06T12:18:30;11.59;81.96
67275;DHT22;55463;52.324;5.122;2023-01-06T12:20:58;11.58;81.77
67275;DHT22;55463;52.324;5.122;2023-01-06T12:23:30;11.59;81.86
67275;DHT22;55463;52.324;5.122;2023-01-06T12:25:58;11.58;81.78
67275;DHT22;55463;52.324;5.122;2023-01-06T12:28:34;11.59;82.03
67275;DHT22;55463;52.324;5.122;2023-01-06T12:31:29;11.58;82.26
67275;DHT22;55463;52.324;5.122;2023-01-06T12:36:34;11.55;81.87
67275;DHT22;55463;52.324;5.122;2023-01-06T12:39:24;11.52;81.82
67275;DHT22;55463;52.324;5.122;2023-01-06T12:42:22;11.51;81.66
67275;DHT22;55463;52.324;5.122;2023-01-06T12:44:54;11.49;81.89
67275;DHT22;55463;52.324;5.122;2023-01-06T12:47:30;11.45;82.19
67275;DHT22;55463;52.324;5.122;2023-01-06T12:50:26;11.43;82.08
67275;DHT22;55463;52.324;5.122;2023-01-06T12:53:00;11.40;82.17
67275;DHT22;55463;52.324;5.122;2023-01-06T12:55:38;11.36;82.52
67275;DHT22;55463;52.324;5.122;2023-01-06T12:58:29;11.38;82.76
67275;DHT22;55463;52.324;5.122;2023-01-06T13:01:07;11.39;82.26
67275;DHT22;55463;52.324;5.122;2023-01-06T13:03:46;11.34;81.87
67275;DHT22;55463;52.324;5.122;2023-01-06T13:06:51;11.31;82.05
67275;DHT22;55463;52.324;5.122;2023-01-06T13:09:45;11.29;81.82
67275;DHT22;55463;52.324;5.122;2023-01-06T13:12:41;11.24;82.09
67275;DHT22;55463;52.324;5.122;2023-01-06T13:17:53;11.21;81.14
67275;DHT22;55463;52.324;5.122;2023-01-06T13:20:27;11.18;81.11
67275;DHT22;55463;52.324;5.122;2023-01-06T13:23:36;11.12;81.12
67275;DHT22;55463;52.324;5.122;2023-01-06T13:34:43;11.08;81.28
67275;DHT22;55463;52.324;5.122;2023-01-06T13:40:15;11.10;80.83
67275;DHT22;55463;52.324;5.122;2023-01-06T13:42:52;11.10;80.72
67275;DHT22;55463;52.324;5.122;2023-01-06T13:45:23;11.10;80.46
67275;DHT22;55463;52.324;5.122;2023-01-06T13:47:50;11.10;80.66
67275;DHT22;55463;52.324;5.122;2023-01-06T13:50:18;11.11;80.70
67275;DHT22;55463;52.324;5.122;2023-01-06T13:52:45;11.14;80.67
67275;DHT22;55463;52.324;5.122;2023-01-06T13:55:33;11.11;80.38
67275;DHT22;55463;52.324;5.122;2023-01-06T14:03:39;11.03;80.29
67275;DHT22;55463;52.324;5.122;2023-01-06T14:06:09;11.03;80.40
67275;DHT22;55463;52.324;5.122;2023-01-06T14:08:37;10.97;80.22
67275;DHT22;55463;52.324;5.122;2023-01-06T14:14:05;10.90;80.35
67275;DHT22;55463;52.324;5.122;2023-01-06T14:16:38;10.87;80.58
67275;DHT22;55463;52.324;5.122;2023-01-06T14:19:17;10.85;80.70
67275;DHT22;55463;52.324;5.122;2023-01-06T14:21:45;10.81;80.55
67275;DHT22;55463;52.324;5.122;2023-01-06T14:24:26;10.79;80.65
67275;DHT22;55463;52.324;5.122;2023-01-06T14:27:03;10.80;80.90
67275;DHT22;55463;52.324;5.122;2023-01-06T14:30:00;10.77;80.80
67275;DHT22;55463;52.324;5.122;2023-01-06T14:35:02;10.69;81.61
67275;DHT22;55463;52.324;5.122;2023-01-06T14:37:35;10.67;81.39
67275;DHT22;55463;52.324;5.122;2023-01-06T14:40:03;10.64;81.59
67275;DHT22;55463;52.324;5.122;2023-01-06T14:42:37;10.62;81.31
67275;DHT22;55463;52.324;5.122;2023-01-06T14:45:18;10.60;81.51
67275;DHT22;55463;52.324;5.122;2023-01-06T14:47:51;10.60;81.45
67275;DHT22;55463;52.324;5.122;2023-01-06T14:50:19;10.56;81.22
67275;DHT22;55463;52.324;5.122;2023-01-06T14:52:49;10.59;81.24
67275;DHT22;55463;52.324;5.122;2023-01-06T14:55:19;10.55;80.73
67275;DHT22;55463;52.324;5.122;2023-01-06T14:57:45;10.50;80.63
67275;DHT22;55463;52.324;5.122;2023-01-06T15:00:14;10.52;80.82
67275;DHT22;55463;52.324;5.122;2023-01-06T15:02:46;10.52;80.70
67275;DHT22;55463;52.324;5.122;2023-01-06T15:05:27;10.48;80.79
67275;DHT22;55463;52.324;5.122;2023-01-06T15:08:05;10.45;81.13
67275;DHT22;55463;52.324;5.122;2023-01-06T15:10:38;10.44;81.43
67275;DHT22;55463;52.324;5.122;2023-01-06T15:13:26;10.41;81.70
67275;DHT22;55463;52.324;5.122;2023-01-06T15:18:55;10.32;82.04
67275;DHT22;55463;52.324;5.122;2023-01-06T15:21:21;10.29;82.52
67275;DHT22;55463;52.324;5.122;2023-01-06T15:23:49;10.29;82.63
67275;DHT22;55463;52.324;5.122;2023-01-06T15:26:23;10.25;82.84
67275;DHT22;55463;52.324;5.122;2023-01-06T15:29:10;10.24;83.08
67275;DHT22;55463;52.324;5.122;2023-01-06T15:31:38;10.18;83.37
67275;DHT22;55463;52.324;5.122;2023-01-06T15:34:14;10.17;83.57
67275;DHT22;55463;52.324;5.122;2023-01-06T15:36:41;10.14;83.80
67275;DHT22;55463;52.324;5.122;2023-01-06T15:39:10;10.10;83.90
67275;DHT22;55463;52.324;5.122;2023-01-06T15:41:37;10.04;84.08
67275;DHT22;55463;52.324;5.122;2023-01-06T15:44:21;10.01;84.30
67275;DHT22;55463;52.324;5.122;2023-01-06T15:46:48;9.97;84.33
67275;DHT22;55463;52.324;5.122;2023-01-06T15:49:48;9.94;84.54
67275;DHT22;55463;52.324;5.122;2023-01-06T15:52:27;9.86;84.61
67275;DHT22;55463;52.324;5.122;2023-01-06T15:54:57;9.84;84.70
67275;DHT22;55463;52.324;5.122;2023-01-06T15:57:24;9.79;84.85
67275;DHT22;55463;52.324;5.122;2023-01-06T15:59:59;9.74;85.02
67275;DHT22;55463;52.324;5.122;2023-01-06T16:02:28;9.72;85.14
67275;DHT22;55463;52.324;5.122;2023-01-06T16:04:54;9.69;85.39
67275;DHT22;55463;52.324;5.122;2023-01-06T16:07:40;9.63;85.54
67275;DHT22;55463;52.324;5.122;2023-01-06T16:10:32;9.60;85.82
67275;DHT22;55463;52.324;5.122;2023-01-06T16:13:35;9.56;85.89
67275;DHT22;55463;52.324;5.122;2023-01-06T16:16:03;9.53;86.01
67275;DHT22;55463;52.324;5.122;2023-01-06T16:18:31;9.49;86.16
67275;DHT22;55463;52.324;5.122;2023-01-06T16:20:57;9.48;86.14
67275;DHT22;55463;52.324;5.122;2023-01-06T16:23:32;9.42;86.30
67275;DHT22;55463;52.324;5.122;2023-01-06T16:26:40;9.38;86.36
67275;DHT22;55463;52.324;5.122;2023-01-06T16:28:56;9.38;86.36
67275;DHT22;55463;52.324;5.122;2023-01-06T16:31:38;9.36;86.47
67275;DHT22;55463;52.324;5.122;2023-01-06T16:34:23;9.32;86.58
67275;DHT22;55463;52.324;5.122;2023-01-06T16:36:51;9.29;86.67
67275;DHT22;55463;52.324;5.122;2023-01-06T16:39:17;9.25;86.94
67275;DHT22;55463;52.324;5.122;2023-01-06T16:44:27;9.22;87.12
67275;DHT22;55463;52.324;5.122;2023-01-06T16:46:54;9.18;87.12
67275;DHT22;55463;52.324;5.122;2023-01-06T16:49:20;9.17;87.22
67275;DHT22;55463;52.324;5.122;2023-01-06T16:51:46;9.14;87.32
67275;DHT22;55463;52.324;5.122;2023-01-06T16:54:13;9.12;87.61
67275;DHT22;55463;52.324;5.122;2023-01-06T16:56:41;9.08;87.67
67275;DHT22;55463;52.324;5.122;2023-01-06T16:59:11;9.04;87.83
67275;DHT22;55463;52.324;5.122;2023-01-06T17:01:37;9.00;88.10
67275;DHT22;55463;52.324;5.122;2023-01-06T17:04:02;9.00;88.22
67275;DHT22;55463;52.324;5.122;2023-01-06T17:06:30;9.00;88.29
67275;DHT22;55463;52.324;5.122;2023-01-06T17:08:59;8.99;88.49
67275;DHT22;55463;52.324;5.122;2023-01-06T17:11:27;8.96;88.53
67275;DHT22;55463;52.324;5.122;2023-01-06T17:14:01;8.97;88.78
67275;DHT22;55463;52.324;5.122;2023-01-06T17:16:34;8.96;88.95
67275;DHT22;55463;52.324;5.122;2023-01-06T17:19:20;8.94;89.22
67275;DHT22;55463;52.324;5.122;2023-01-06T17:21:46;8.96;89.37
67275;DHT22;55463;52.324;5.122;2023-01-06T17:24:19;8.94;89.56
67275;DHT22;55463;52.324;5.122;2023-01-06T17:27:12;8.97;89.67
67275;DHT22;55463;52.324;5.122;2023-01-06T17:29:40;8.97;89.75
67275;DHT22;55463;52.324;5.122;2023-01-06T17:32:20;8.96;89.96
67275;DHT22;55463;52.324;5.122;2023-01-06T17:34:47;9.00;90.08
67275;DHT22;55463;52.324;5.122;2023-01-06T17:37:23;8.99;90.04